Time;durP1;ratioP1;P1;durP2;ratioP2;P2;SDS_P1;SDS_P2;PMS_P1;PMS_P2;Temp;Humidity;BMP_temperature;BMP_pressure;BME280_temperature;BME280_humidity;BME280_pressure;Samples;Min_cycle;Max_cycle;Signal;HPM_P1;HPM_P2
2023/07/08 00:00:29;;;;;;;7.27;6.20;;;28.20;53.30;;;;;;5034323;28;20906;-64
2023/07/08 00:02:57;;;;;;;6.50;5.90;;;28.20;53.20;;;;;;5033602;28;20465;-64
2023/07/08 00:05:26;;;;;;;7.10;6.40;;;28.20;53.40;;;;;;5042638;28;20514;-62
2023/07/08 00:07:54;;;;;;;6.60;6.00;;;28.10;53.40;;;;;;5053766;28;20434;-61
2023/07/08 00:10:26;;;;;;;6.70;6.10;;;28.10;53.30;;;;;;5053220;28;21008;-61
2023/07/08 00:12:58;;;;;;;6.17;5.57;;;28.10;53.40;;;;;;5035013;28;20511;-62
2023/07/08 00:15:29;;;;;;;6.93;6.33;;;28.10;53.40;;;;;;5048050;28;20492;-64
2023/07/08 00:17:57;;;;;;;6.70;6.10;;;28.10;53.20;;;;;;5046944;28;20591;-65
2023/07/08 00:20:33;;;;;;;7.30;6.30;;;28.10;53.40;;;;;;5030986;28;20923;-65
2023/07/08 00:23:01;;;;;;;7.63;6.20;;;28.10;53.20;;;;;;5043496;28;20461;-62
2023/07/08 00:25:32;;;;;;;7.10;6.40;;;28.10;53.20;;;;;;5045304;28;20460;-63
2023/07/08 00:28:00;;;;;;;6.47;5.87;;;28.10;53.10;;;;;;5050076;28;20457;-62
2023/07/08 00:30:30;;;;;;;7.43;6.63;;;28.10;53.00;;;;;;5064255;28;20446;-62
2023/07/08 00:32:59;;;;;;;7.40;6.70;;;28.10;52.90;;;;;;5065421;28;20475;-62
2023/07/08 00:35:33;;;;;;;7.10;6.40;;;28.10;52.90;;;;;;5025385;28;20570;-62
2023/07/08 00:38:02;;;;;;;8.87;6.80;;;28.10;53.00;;;;;;5019935;28;20490;-64
2023/07/08 00:40:34;;;;;;;6.57;5.73;;;28.00;53.00;;;;;;5022049;28;20457;-64
2023/07/08 00:43:06;;;;;;;6.37;5.67;;;28.00;53.00;;;;;;5052849;28;20461;-66
2023/07/08 00:45:41;;;;;;;6.13;5.57;;;28.00;53.00;;;;;;5046938;28;20804;-65
2023/07/08 00:48:32;;;;;;;7.70;6.20;;;28.00;52.90;;;;;;5034182;28;20504;-65
2023/07/08 00:51:00;;;;;;;7.13;6.33;;;28.10;52.90;;;;;;5041747;28;21014;-69
2023/07/08 00:53:31;;;;;;;6.47;5.87;;;28.00;52.90;;;;;;5042283;28;20476;-64
2023/07/08 00:56:07;;;;;;;8.67;7.03;;;28.00;52.90;;;;;;5046459;28;20830;-65
2023/07/08 00:58:40;;;;;;;6.37;5.77;;;28.00;52.90;;;;;;5051599;28;20453;-64
2023/07/08 01:01:09;;;;;;;6.53;5.87;;;28.00;53.10;;;;;;5047467;28;20530;-64
2023/07/08 01:03:44;;;;;;;6.10;5.50;;;28.00;52.90;;;;;;5033784;28;21297;-64
2023/07/08 01:06:12;;;;;;;7.30;6.13;;;28.00;53.00;;;;;;5033132;28;20452;-64
2023/07/08 01:08:41;;;;;;;7.10;5.67;;;28.00;53.00;;;;;;5048576;28;20953;-67
2023/07/08 01:11:12;;;;;;;6.30;5.70;;;28.00;53.00;;;;;;5036458;28;20459;-64
2023/07/08 01:13:44;;;;;;;6.63;5.97;;;27.90;53.10;;;;;;5038027;28;20465;-64
2023/07/08 01:16:15;;;;;;;6.50;5.90;;;27.90;53.20;;;;;;5028856;28;20869;-69
2023/07/08 01:18:52;;;;;;;6.27;5.67;;;27.90;52.90;;;;;;5032845;28;20546;-63
2023/07/08 01:21:31;;;;;;;7.90;6.90;;;27.90;52.80;;;;;;5056450;28;20485;-64
2023/07/08 01:24:03;;;;;;;5.60;5.10;;;28.00;52.90;;;;;;5052075;28;20433;-65
2023/07/08 01:26:35;;;;;;;7.00;6.30;;;27.90;52.90;;;;;;5040779;28;20457;-66
2023/07/08 01:29:04;;;;;;;6.40;5.80;;;27.90;52.90;;;;;;5031361;28;20453;-65
2023/07/08 01:31:33;;;;;;;5.63;5.13;;;27.90;52.90;;;;;;5049178;28;20998;-66
2023/07/08 01:34:01;;;;;;;5.53;5.03;;;27.90;52.90;;;;;;5033527;28;20449;-64
2023/07/08 01:36:36;;;;;;;6.83;5.83;;;27.90;53.00;;;;;;5042230;28;20481;-64
2023/07/08 01:39:06;;;;;;;6.80;6.17;;;27.90;53.10;;;;;;5030915;28;20488;-64
2023/07/08 01:41:35;;;;;;;7.07;6.20;;;27.90;53.00;;;;;;5043711;28;20488;-69
2023/07/08 01:44:04;;;;;;;6.30;5.70;;;27.90;53.00;;;;;;5025567;28;20665;-68
2023/07/08 01:46:32;;;;;;;5.93;5.33;;;27.90;53.20;;;;;;5030939;28;20460;-64
2023/07/08 01:49:02;;;;;;;6.10;5.50;;;27.90;53.10;;;;;;5033605;28;20452;-70
2023/07/08 01:51:30;;;;;;;5.50;5.00;;;27.90;53.20;;;;;;5043024;28;20455;-69
2023/07/08 01:53:58;;;;;;;8.33;6.17;;;27.90;53.00;;;;;;5036725;28;20522;-65
2023/07/08 01:56:28;;;;;;;7.17;6.47;;;27.90;53.10;;;;;;5041503;28;20476;-65
2023/07/08 01:58:56;;;;;;;6.43;5.83;;;27.90;53.10;;;;;;5013485;28;20458;-68
2023/07/08 02:01:25;;;;;;;6.57;5.63;;;27.90;53.20;;;;;;5022229;28;20466;-65
2023/07/08 02:03:53;;;;;;;5.80;5.03;;;27.80;53.20;;;;;;5046353;28;20446;-64
2023/07/08 02:06:21;;;;;;;6.33;5.70;;;27.80;53.20;;;;;;5040234;28;20503;-65
2023/07/08 02:08:51;;;;;;;8.23;7.03;;;27.80;53.30;;;;;;5035464;28;20473;-65
2023/07/08 02:11:19;;;;;;;7.30;5.40;;;27.80;53.20;;;;;;5013899;28;20747;-65
2023/07/08 02:13:50;;;;;;;7.43;5.83;;;27.80;53.20;;;;;;5030082;28;20964;-65
2023/07/08 02:16:18;;;;;;;6.03;5.43;;;27.80;53.30;;;;;;5035563;28;20483;-71
2023/07/08 02:18:47;;;;;;;5.50;4.97;;;27.80;53.30;;;;;;5033999;28;20456;-68
2023/07/08 02:21:17;;;;;;;6.23;5.60;;;27.80;53.30;;;;;;5026184;28;20477;-64
2023/07/08 02:23:50;;;;;;;6.47;5.80;;;27.70;53.40;;;;;;5051363;28;20456;-64
2023/07/08 02:26:18;;;;;;;6.83;5.97;;;27.70;53.40;;;;;;5050425;28;20460;-65
2023/07/08 02:28:46;;;;;;;7.20;5.90;;;27.80;53.50;;;;;;5017203;28;20584;-64
2023/07/08 02:31:16;;;;;;;6.20;5.07;;;27.80;53.40;;;;;;5035365;28;20484;-64
2023/07/08 02:33:44;;;;;;;5.80;5.30;;;27.80;53.40;;;;;;5037028;28;20552;-64
2023/07/08 02:36:12;;;;;;;6.73;6.00;;;27.80;53.40;;;;;;5031142;28;20568;-64
2023/07/08 02:38:40;;;;;;;5.93;5.23;;;27.70;53.50;;;;;;5054495;28;20476;-66
2023/07/08 02:41:09;;;;;;;6.50;5.90;;;27.70;53.40;;;;;;5054796;28;20457;-65
2023/07/08 02:43:37;;;;;;;5.77;5.27;;;27.70;53.30;;;;;;5054515;28;20453;-65
2023/07/08 02:46:06;;;;;;;6.37;5.80;;;27.70;53.50;;;;;;5036661;28;20475;-64
2023/07/08 02:48:36;;;;;;;6.20;5.60;;;27.70;53.50;;;;;;5049237;28;20487;-64
2023/07/08 02:51:06;;;;;;;6.57;5.90;;;27.70;53.40;;;;;;5050016;28;20546;-64
2023/07/08 02:53:35;;;;;;;6.10;5.50;;;27.70;53.50;;;;;;5047125;28;20463;-65
2023/07/08 02:56:04;;;;;;;7.67;6.97;;;27.70;53.50;;;;;;5043193;28;20506;-64
2023/07/08 02:58:34;;;;;;;5.73;5.23;;;27.70;53.50;;;;;;5037355;28;20979;-65
2023/07/08 03:01:02;;;;;;;6.63;5.70;;;27.70;53.50;;;;;;5040392;28;20444;-64
2023/07/08 03:03:31;;;;;;;6.53;5.60;;;27.70;53.50;;;;;;5036185;28;20440;-63
2023/07/08 03:06:02;;;;;;;6.77;6.07;;;27.70;53.70;;;;;;5034938;28;20463;-64
2023/07/08 03:08:31;;;;;;;6.93;6.00;;;27.70;53.80;;;;;;5036746;28;20513;-64
2023/07/08 03:11:01;;;;;;;6.03;5.53;;;27.70;53.80;;;;;;5049291;28;20515;-66
2023/07/08 03:13:31;;;;;;;6.73;5.93;;;27.70;53.60;;;;;;5044116;28;20458;-65
2023/07/08 03:16:00;;;;;;;6.40;5.67;;;27.70;53.60;;;;;;5054193;28;20954;-64
2023/07/08 03:18:30;;;;;;;7.80;5.87;;;27.70;53.80;;;;;;5023775;28;20467;-64
2023/07/08 03:21:00;;;;;;;6.50;5.90;;;27.70;54.40;;;;;;5038593;28;20515;-64
2023/07/08 03:23:28;;;;;;;8.37;6.80;;;27.70;54.00;;;;;;5034528;28;20428;-64
2023/07/08 03:25:57;;;;;;;7.70;5.83;;;27.70;53.80;;;;;;5039274;28;20825;-65
2023/07/08 03:28:25;;;;;;;6.40;5.80;;;27.60;54.00;;;;;;5035851;28;20455;-64
2023/07/08 03:30:54;;;;;;;6.40;5.80;;;27.60;54.00;;;;;;5044950;28;20469;-65
2023/07/08 03:33:22;;;;;;;6.90;6.30;;;27.60;54.10;;;;;;5015736;28;20459;-64
2023/07/08 03:35:51;;;;;;;7.00;6.07;;;27.60;54.10;;;;;;5025577;28;20510;-64
2023/07/08 03:38:20;;;;;;;6.83;6.23;;;27.60;54.00;;;;;;5035747;28;20488;-65
2023/07/08 03:40:49;;;;;;;7.10;6.40;;;27.60;54.10;;;;;;5051585;28;20467;-64
2023/07/08 03:43:17;;;;;;;7.00;6.40;;;27.60;54.20;;;;;;5046283;28;20455;-64
2023/07/08 03:45:47;;;;;;;6.13;5.57;;;27.60;54.20;;;;;;5035264;28;20839;-68
2023/07/08 03:48:17;;;;;;;7.43;6.70;;;27.60;54.30;;;;;;5039803;28;20456;-71
2023/07/08 03:50:45;;;;;;;8.40;7.07;;;27.60;54.60;;;;;;5036422;28;20884;-64
2023/07/08 03:53:13;;;;;;;7.07;6.37;;;27.60;54.40;;;;;;5036017;28;20985;-64
2023/07/08 03:55:44;;;;;;;6.97;6.27;;;27.50;54.60;;;;;;5030649;28;20472;-64
2023/07/08 03:58:13;;;;;;;6.97;6.30;;;27.60;54.90;;;;;;5052192;28;20475;-65
2023/07/08 04:00:41;;;;;;;8.70;6.23;;;27.60;54.50;;;;;;5034305;28;20468;-65
2023/07/08 04:03:11;;;;;;;8.33;6.37;;;27.60;54.70;;;;;;5032998;28;20451;-67
2023/07/08 04:05:40;;;;;;;7.17;6.47;;;27.60;54.90;;;;;;5023624;28;20815;-64
2023/07/08 04:08:08;;;;;;;6.10;5.60;;;27.50;54.70;;;;;;5043806;28;20944;-65
2023/07/08 04:10:36;;;;;;;6.70;5.80;;;27.60;54.80;;;;;;5035728;28;20453;-64
2023/07/08 04:13:06;;;;;;;7.73;6.23;;;27.50;54.80;;;;;;5049005;28;20479;-70
2023/07/08 04:15:34;;;;;;;9.40;6.70;;;27.60;55.00;;;;;;5040040;28;20472;-64
2023/07/08 04:18:02;;;;;;;7.80;6.87;;;27.60;54.90;;;;;;5052720;28;20470;-65
2023/07/08 04:20:30;;;;;;;6.20;5.60;;;27.60;55.00;;;;;;5053704;28;20973;-65
2023/07/08 04:22:58;;;;;;;7.13;6.10;;;27.60;55.20;;;;;;5036709;28;20947;-65
2023/07/08 04:25:27;;;;;;;6.13;5.20;;;27.60;55.00;;;;;;5033914;28;20456;-65
2023/07/08 04:27:56;;;;;;;6.80;6.10;;;27.60;55.10;;;;;;5052763;28;20439;-64
2023/07/08 04:30:27;;;;;;;7.03;6.00;;;27.60;55.20;;;;;;5052933;28;20420;-64
2023/07/08 04:32:55;;;;;;;6.27;5.63;;;27.60;55.20;;;;;;5035569;28;21022;-64
2023/07/08 04:35:24;;;;;;;6.97;6.27;;;27.60;55.30;;;;;;5039347;28;20449;-65
2023/07/08 04:37:54;;;;;;;7.23;6.53;;;27.60;55.60;;;;;;5050353;28;20572;-66
2023/07/08 04:40:22;;;;;;;8.33;6.30;;;27.60;55.70;;;;;;5035193;28;20975;-64
2023/07/08 04:42:52;;;;;;;7.70;6.37;;;27.60;55.60;;;;;;5032471;28;20445;-65
2023/07/08 04:45:21;;;;;;;5.70;5.20;;;27.60;55.60;;;;;;5043240;28;20545;-68
2023/07/08 04:47:52;;;;;;;6.97;6.27;;;27.50;55.70;;;;;;5043002;28;20558;-65
2023/07/08 04:50:21;;;;;;;6.67;5.90;;;27.50;55.80;;;;;;5037226;28;20557;-64
2023/07/08 04:52:50;;;;;;;7.13;6.27;;;27.50;56.50;;;;;;5036235;28;20759;-68
2023/07/08 04:55:19;;;;;;;6.40;5.70;;;27.60;55.90;;;;;;5046999;28;20455;-62
2023/07/08 04:57:47;;;;;;;7.10;5.93;;;27.60;56.10;;;;;;5044624;28;20877;-63
2023/07/08 05:00:17;;;;;;;7.77;7.07;;;27.60;56.20;;;;;;5041965;28;20458;-62
2023/07/08 05:02:45;;;;;;;6.53;5.90;;;27.60;56.30;;;;;;5039522;28;20471;-64
2023/07/08 05:05:15;;;;;;;9.83;6.33;;;27.60;56.50;;;;;;5032551;28;20428;-64
2023/07/08 05:07:43;;;;;;;6.70;6.00;;;27.60;56.40;;;;;;5043768;28;20539;-64
2023/07/08 05:10:11;;;;;;;6.40;5.80;;;27.60;56.50;;;;;;5040964;28;20494;-67
2023/07/08 05:12:42;;;;;;;6.70;6.10;;;27.60;56.80;;;;;;5030965;28;20455;-64
2023/07/08 05:15:11;;;;;;;6.30;5.70;;;27.50;56.80;;;;;;5048201;28;20496;-67
2023/07/08 05:17:40;;;;;;;6.33;5.30;;;27.50;56.70;;;;;;5042485;28;20488;-65
2023/07/08 05:20:10;;;;;;;7.93;6.67;;;27.50;56.80;;;;;;5049659;28;20448;-66
2023/07/08 05:22:42;;;;;;;7.60;6.40;;;27.50;56.60;;;;;;5045446;28;20455;-66
2023/07/08 05:25:11;;;;;;;8.80;6.60;;;27.60;57.00;;;;;;5051635;28;20485;-66
2023/07/08 05:27:40;;;;;;;7.33;6.63;;;27.50;56.70;;;;;;5040642;28;20507;-65
2023/07/08 05:30:11;;;;;;;6.60;5.90;;;27.60;57.00;;;;;;5039917;28;20460;-65
2023/07/08 05:32:39;;;;;;;6.10;5.47;;;27.60;56.80;;;;;;5044127;28;20457;-64
2023/07/08 05:35:08;;;;;;;6.70;6.10;;;27.60;56.80;;;;;;5039031;28;20471;-66
2023/07/08 05:37:39;;;;;;;6.70;6.07;;;27.60;56.70;;;;;;5031175;28;20491;-65
2023/07/08 05:40:10;;;;;;;6.07;5.47;;;27.60;57.00;;;;;;5048181;28;20468;-64
2023/07/08 05:42:38;;;;;;;6.90;5.57;;;27.60;56.90;;;;;;5047569;28;20455;-65
2023/07/08 05:45:09;;;;;;;7.27;6.40;;;27.60;56.80;;;;;;5051349;28;20503;-66
2023/07/08 05:47:38;;;;;;;6.20;5.60;;;27.60;57.00;;;;;;5034276;28;20466;-64
2023/07/08 05:50:07;;;;;;;6.10;5.50;;;27.60;56.70;;;;;;5050832;28;20539;-67
2023/07/08 05:52:35;;;;;;;6.87;6.17;;;27.60;56.70;;;;;;5047446;28;20453;-64
2023/07/08 05:55:04;;;;;;;6.27;5.67;;;27.60;56.80;;;;;;5047105;28;20462;-64
2023/07/08 05:57:33;;;;;;;5.70;5.10;;;27.60;57.00;;;;;;5046063;28;20545;-64
2023/07/08 06:00:01;;;;;;;6.27;5.70;;;27.60;56.80;;;;;;5033290;28;20864;-64
2023/07/08 06:02:39;;;;;;;6.00;5.40;;;27.60;56.80;;;;;;5035350;28;20523;-64
2023/07/08 06:05:07;;;;;;;5.90;5.30;;;27.60;56.80;;;;;;5044262;28;20978;-63
2023/07/08 06:07:36;;;;;;;6.13;5.60;;;27.60;56.70;;;;;;5039605;28;20495;-64
2023/07/08 06:10:05;;;;;;;5.77;5.20;;;27.60;56.70;;;;;;5046460;28;20513;-64
2023/07/08 06:12:34;;;;;;;7.03;6.43;;;27.60;56.60;;;;;;5044412;28;20459;-65
2023/07/08 06:15:02;;;;;;;6.73;6.03;;;27.70;56.60;;;;;;5048282;28;20490;-70
2023/07/08 06:17:30;;;;;;;6.67;5.97;;;27.70;56.60;;;;;;5050101;28;20453;-65
2023/07/08 06:19:59;;;;;;;6.40;5.80;;;27.70;56.60;;;;;;5047539;28;20466;-64
2023/07/08 06:22:27;;;;;;;6.20;5.60;;;27.70;56.60;;;;;;5041367;28;20459;-71
2023/07/08 06:24:58;;;;;;;5.60;5.10;;;27.70;56.60;;;;;;5041554;28;20462;-67
2023/07/08 06:27:27;;;;;;;6.80;6.07;;;27.70;56.50;;;;;;5047586;28;20550;-65
2023/07/08 06:29:57;;;;;;;7.03;5.57;;;27.70;56.60;;;;;;5034492;28;20973;-64
2023/07/08 06:32:25;;;;;;;6.47;5.30;;;27.70;56.60;;;;;;5040066;28;20460;-66
2023/07/08 06:34:53;;;;;;;5.63;5.10;;;27.70;56.50;;;;;;5040655;28;20478;-63
2023/07/08 06:37:21;;;;;;;5.93;5.43;;;27.70;56.50;;;;;;5042671;28;20874;-64
2023/07/08 06:39:49;;;;;;;6.43;5.10;;;27.70;56.50;;;;;;5038649;28;20510;-64
2023/07/08 06:42:18;;;;;;;6.03;5.43;;;27.70;56.60;;;;;;5037311;28;20467;-63
2023/07/08 06:44:56;;;;;;;6.67;6.07;;;27.70;56.60;;;;;;5027552;28;20477;-64
2023/07/08 06:47:25;;;;;;;5.63;5.03;;;27.70;56.60;;;;;;5038874;28;20854;-69
2023/07/08 06:49:53;;;;;;;6.10;5.50;;;27.70;56.70;;;;;;5045842;28;20469;-64
2023/07/08 06:52:25;;;;;;;6.47;5.77;;;27.70;56.70;;;;;;5033732;28;20468;-63
2023/07/08 06:54:53;;;;;;;5.90;5.40;;;27.70;56.80;;;;;;5039909;28;20501;-69
2023/07/08 06:57:21;;;;;;;6.20;5.60;;;27.70;56.80;;;;;;5040037;28;20539;-64
2023/07/08 06:59:49;;;;;;;6.50;5.90;;;27.70;56.80;;;;;;5036234;28;20886;-66
2023/07/08 07:02:19;;;;;;;5.40;4.90;;;27.70;56.80;;;;;;5042530;28;20507;-66
2023/07/08 07:04:47;;;;;;;6.40;5.80;;;27.70;56.70;;;;;;5041928;28;20814;-66
2023/07/08 07:07:16;;;;;;;6.53;5.90;;;27.70;56.70;;;;;;5041178;28;21017;-63
2023/07/08 07:09:44;;;;;;;6.43;5.83;;;27.70;56.80;;;;;;5045566;28;20459;-64
2023/07/08 07:12:12;;;;;;;8.30;6.00;;;27.70;56.90;;;;;;5039801;28;20557;-64
2023/07/08 07:14:40;;;;;;;7.20;6.53;;;27.70;57.10;;;;;;5046172;28;20468;-69
2023/07/08 07:17:11;;;;;;;7.13;5.47;;;27.70;57.10;;;;;;5042071;28;20452;-65
2023/07/08 07:19:41;;;;;;;10.60;6.10;;;27.80;57.20;;;;;;5042719;28;21012;-65
2023/07/08 07:22:09;;;;;;;6.80;5.70;;;27.80;57.10;;;;;;5046233;28;20463;-65
2023/07/08 07:24:38;;;;;;;6.50;5.90;;;27.80;57.10;;;;;;5044931;28;20499;-65
2023/07/08 07:27:06;;;;;;;6.80;6.20;;;27.80;57.10;;;;;;5041545;28;20517;-65
2023/07/08 07:29:42;;;;;;;9.33;6.50;;;27.80;57.10;;;;;;5026747;28;20464;-65
2023/07/08 07:32:10;;;;;;;5.90;5.20;;;27.80;57.00;;;;;;5046068;28;21119;-64
2023/07/08 07:34:38;;;;;;;6.63;5.97;;;27.80;57.00;;;;;;5042242;28;20519;-66
2023/07/08 07:37:12;;;;;;;5.37;4.87;;;27.80;56.90;;;;;;5047188;28;20547;-66
2023/07/08 07:39:41;;;;;;;7.50;6.80;;;27.80;57.00;;;;;;5046290;28;20476;-65
2023/07/08 07:42:10;;;;;;;11.83;6.70;;;27.80;57.00;;;;;;5045389;28;20456;-65
2023/07/08 07:44:39;;;;;;;8.30;6.33;;;27.80;57.20;;;;;;5044393;28;20518;-68
2023/07/08 07:47:08;;;;;;;10.03;7.40;;;27.80;57.30;;;;;;5051093;28;21246;-64
2023/07/08 07:49:36;;;;;;;9.90;7.37;;;27.80;57.30;;;;;;5045988;28;20465;-70
2023/07/08 07:52:05;;;;;;;9.33;6.50;;;27.80;57.40;;;;;;5051744;28;20498;-64
2023/07/08 07:54:35;;;;;;;11.10;6.47;;;27.80;57.40;;;;;;5046825;28;20456;-66
2023/07/08 07:57:03;;;;;;;9.50;6.47;;;27.70;57.90;;;;;;5052669;28;20483;-64
2023/07/08 07:59:31;;;;;;;9.60;6.60;;;27.80;57.70;;;;;;5063009;28;20602;-65
2023/07/08 08:01:59;;;;;;;9.67;7.10;;;27.80;57.90;;;;;;5052380;28;20510;-69
2023/07/08 08:04:28;;;;;;;9.67;6.83;;;27.80;58.10;;;;;;5051305;28;20518;-64
2023/07/08 08:06:56;;;;;;;11.53;7.07;;;27.80;58.20;;;;;;5051931;28;20460;-65
2023/07/08 08:09:24;;;;;;;7.63;6.83;;;27.70;58.20;;;;;;5058608;28;20439;-64
2023/07/08 08:11:55;;;;;;;13.20;7.13;;;27.80;58.30;;;;;;5048109;28;20962;-68
2023/07/08 08:14:23;;;;;;;8.03;6.30;;;27.80;58.30;;;;;;5045462;28;20458;-64
2023/07/08 08:16:51;;;;;;;7.23;6.13;;;27.80;58.20;;;;;;5040323;28;20489;-68
2023/07/08 08:19:20;;;;;;;9.57;7.33;;;27.80;58.10;;;;;;5050052;28;20473;-68
2023/07/08 08:21:48;;;;;;;9.37;6.80;;;27.80;58.00;;;;;;5055917;28;20465;-66
2023/07/08 08:24:16;;;;;;;10.60;7.37;;;27.80;58.00;;;;;;5047571;28;20802;-64
2023/07/08 08:26:44;;;;;;;10.93;7.07;;;27.80;58.20;;;;;;5054044;28;20458;-68
2023/07/08 08:29:14;;;;;;;11.40;7.40;;;27.80;58.20;;;;;;5051019;28;20460;-65
2023/07/08 08:31:42;;;;;;;8.87;7.20;;;27.70;58.30;;;;;;5047827;28;20456;-65
2023/07/08 08:34:10;;;;;;;12.63;7.80;;;27.70;58.30;;;;;;5049177;28;20449;-64
2023/07/08 08:36:38;;;;;;;9.00;6.53;;;27.70;58.40;;;;;;5052856;28;20508;-65
2023/07/08 08:39:07;;;;;;;9.10;6.57;;;27.70;58.30;;;;;;5042295;28;21001;-65
2023/07/08 08:41:38;;;;;;;7.80;6.23;;;27.70;58.40;;;;;;5049862;28;20461;-65
2023/07/08 08:44:07;;;;;;;9.97;6.87;;;27.70;58.40;;;;;;5051182;28;20515;-64
2023/07/08 08:46:53;;;;;;;10.33;6.20;;;27.70;58.40;;;;;;5041522;28;20807;-64
2023/07/08 08:49:26;;;;;;;7.47;6.30;;;27.70;58.50;;;;;;5044766;28;20578;-64
2023/07/08 08:51:55;;;;;;;9.13;7.03;;;27.60;58.60;;;;;;5026675;28;20442;-68
2023/07/08 08:54:23;;;;;;;8.03;6.30;;;27.60;58.80;;;;;;5046616;28;20511;-64
2023/07/08 08:57:01;;;;;;;7.40;6.63;;;27.50;58.90;;;;;;5038167;28;20495;-66
2023/07/08 08:59:38;;;;;;;7.33;6.63;;;27.50;58.90;;;;;;5037886;28;20482;-64
2023/07/08 09:02:26;;;;;;;7.60;6.40;;;27.50;59.00;;;;;;5044962;28;20453;-69
2023/07/08 09:04:55;;;;;;;9.87;7.00;;;27.50;59.00;;;;;;5036381;28;20491;-64
2023/07/08 09:07:24;;;;;;;12.23;6.40;;;27.50;59.00;;;;;;5054528;28;20454;-64
2023/07/08 09:10:00;;;;;;;7.50;6.60;;;27.50;59.10;;;;;;5056251;28;20941;-67
2023/07/08 09:12:30;;;;;;;7.00;6.20;;;27.50;59.30;;;;;;5045502;28;20516;-64
2023/07/08 09:14:59;;;;;;;10.93;5.67;;;27.60;59.00;;;;;;5023682;28;20457;-64
2023/07/08 09:17:32;;;;;;;15.67;6.63;;;27.50;59.20;;;;;;5034002;28;21351;-67
2023/07/08 09:20:16;;;;;;;13.93;6.70;;;27.60;59.20;;;;;;5041409;28;20499;-67
2023/07/08 09:22:48;;;;;;;9.70;6.87;;;27.60;59.40;;;;;;5036036;28;20823;-68
2023/07/08 09:25:25;;;;;;;11.47;5.83;;;27.60;59.00;;;;;;5047126;28;20497;-69
2023/07/08 09:27:54;;;;;;;8.80;5.50;;;27.60;59.00;;;;;;5044244;28;20457;-65
2023/07/08 09:30:24;;;;;;;14.43;5.70;;;27.60;59.00;;;;;;5056281;28;20524;-66
2023/07/08 09:32:54;;;;;;;8.30;5.70;;;27.60;59.10;;;;;;5023842;28;20458;-65
2023/07/08 09:35:24;;;;;;;12.40;6.40;;;27.60;59.10;;;;;;5043705;28;20508;-67
2023/07/08 09:37:53;;;;;;;12.37;6.23;;;27.70;59.20;;;;;;5038148;28;20937;-66
2023/07/08 09:40:23;;;;;;;14.70;6.37;;;27.70;58.90;;;;;;5042423;28;20572;-65
2023/07/08 09:42:55;;;;;;;7.00;6.37;;;27.70;58.90;;;;;;5043800;28;21404;-64
2023/07/08 09:45:25;;;;;;;12.73;6.10;;;27.70;58.90;;;;;;5045301;28;20457;-65
2023/07/08 09:47:57;;;;;;;7.13;6.37;;;27.70;58.90;;;;;;5035885;28;20523;-65
2023/07/08 09:50:28;;;;;;;6.13;5.57;;;27.70;59.00;;;;;;5044495;28;20464;-66
2023/07/08 09:52:59;;;;;;;10.00;6.00;;;27.70;58.90;;;;;;5041297;28;20471;-64
2023/07/08 09:55:28;;;;;;;10.33;6.47;;;27.70;58.90;;;;;;5044479;28;20469;-64
2023/07/08 09:58:01;;;;;;;9.93;5.87;;;27.70;59.00;;;;;;5045693;28;20478;-69
2023/07/08 10:00:38;;;;;;;7.10;5.60;;;27.70;58.90;;;;;;5044183;28;20510;-65
2023/07/08 10:03:14;;;;;;;7.07;5.70;;;27.70;58.90;;;;;;5043577;28;20470;-69
2023/07/08 10:05:43;;;;;;;8.60;5.70;;;27.70;58.90;;;;;;5040946;28;20548;-66
2023/07/08 10:08:16;;;;;;;7.30;6.00;;;27.70;58.80;;;;;;5042406;28;24247;-64
2023/07/08 10:10:46;;;;;;;5.57;5.07;;;27.80;58.90;;;;;;5053255;28;20966;-64
2023/07/08 10:13:21;;;;;;;10.00;6.23;;;27.80;58.80;;;;;;5045241;28;20500;-65
2023/07/08 10:15:54;;;;;;;7.93;6.50;;;27.80;58.80;;;;;;5044792;28;20692;-65
2023/07/08 10:18:28;;;;;;;6.30;5.70;;;27.80;58.70;;;;;;5045478;28;20490;-64
2023/07/08 10:21:01;;;;;;;7.57;5.53;;;27.80;58.70;;;;;;5057842;28;21370;-63
2023/07/08 10:23:40;;;;;;;6.50;5.07;;;27.80;58.60;;;;;;5036545;28;20883;-65
2023/07/08 10:26:16;;;;;;;6.30;5.57;;;27.80;58.50;;;;;;5043710;28;20464;-66
2023/07/08 10:28:51;;;;;;;6.03;5.43;;;27.80;58.50;;;;;;5044289;28;20457;-64
2023/07/08 10:31:29;;;;;;;7.50;5.80;;;27.80;58.40;;;;;;5037285;28;20462;-64
2023/07/08 10:34:26;;;;;;;5.43;4.93;;;27.80;58.40;;;;;;5037344;28;20461;-65
2023/07/08 10:37:02;;;;;;;6.20;5.60;;;27.90;58.30;;;;;;5026094;28;20465;-64
2023/07/08 10:39:51;;;;;;;7.00;5.70;;;27.90;58.30;;;;;;5035009;28;20952;-65
2023/07/08 10:42:33;;;;;;;6.53;5.30;;;27.90;58.20;;;;;;5031104;28;20989;-64
2023/07/08 10:45:08;;;;;;;5.23;4.73;;;27.90;58.20;;;;;;5035929;28;20531;-64
2023/07/08 10:47:48;;;;;;;6.97;5.20;;;27.90;58.20;;;;;;5052948;28;20462;-65
2023/07/08 10:50:32;;;;;;;7.83;5.50;;;27.90;58.10;;;;;;5040571;28;20524;-64
2023/07/08 10:53:22;;;;;;;6.70;6.10;;;27.90;58.10;;;;;;5044166;28;20863;-64
2023/07/08 10:55:59;;;;;;;7.80;5.70;;;27.90;58.00;;;;;;5046998;28;20456;-73
2023/07/08 10:58:45;;;;;;;5.27;4.77;;;27.90;58.00;;;;;;5040663;28;20510;-65
2023/07/08 11:01:24;;;;;;;5.13;4.60;;;28.00;58.00;;;;;;5051077;28;20533;-65
2023/07/08 11:04:16;;;;;;;6.60;5.10;;;28.00;58.00;;;;;;5045028;28;20470;-64
2023/07/08 11:06:51;;;;;;;6.43;4.83;;;28.00;58.00;;;;;;5041645;28;20514;-64
2023/07/08 11:09:24;;;;;;;5.97;5.37;;;28.00;58.00;;;;;;5052161;28;20505;-65
2023/07/08 11:11:57;;;;;;;6.03;4.90;;;28.00;57.90;;;;;;5040886;28;20981;-67
2023/07/08 11:14:29;;;;;;;5.50;4.30;;;28.00;57.90;;;;;;5046906;28;20505;-64
2023/07/08 11:17:10;;;;;;;6.20;5.60;;;28.00;57.90;;;;;;5045304;28;21051;-65
2023/07/08 11:19:45;;;;;;;5.43;4.93;;;28.00;57.90;;;;;;5039331;28;20466;-64
2023/07/08 11:22:17;;;;;;;5.30;4.80;;;28.00;57.90;;;;;;5047927;28;20476;-66
2023/07/08 11:24:48;;;;;;;5.93;5.37;;;28.00;58.10;;;;;;5049936;28;21012;-64
2023/07/08 11:27:26;;;;;;;5.33;4.73;;;28.00;58.10;;;;;;5050894;28;20940;-68
2023/07/08 11:29:58;;;;;;;5.70;4.60;;;28.00;58.00;;;;;;5045829;28;20458;-65
2023/07/08 11:32:29;;;;;;;8.57;5.40;;;28.00;57.90;;;;;;5049880;28;20461;-70
2023/07/08 11:35:00;;;;;;;5.10;4.63;;;28.00;57.90;;;;;;5048414;28;20464;-65
2023/07/08 11:37:31;;;;;;;5.23;4.73;;;28.00;58.00;;;;;;5047398;28;20493;-65
2023/07/08 11:40:11;;;;;;;4.73;4.30;;;28.00;58.00;;;;;;5054139;28;20926;-65
2023/07/08 11:42:42;;;;;;;6.30;5.03;;;27.90;58.00;;;;;;5053458;28;20459;-65
2023/07/08 11:45:26;;;;;;;5.57;4.77;;;27.90;58.10;;;;;;5053679;28;20472;-64
2023/07/08 11:48:04;;;;;;;4.60;4.20;;;27.90;58.10;;;;;;5045913;28;20507;-64
2023/07/08 11:50:36;;;;;;;4.87;4.40;;;27.90;58.10;;;;;;5033545;28;20473;-65
2023/07/08 11:53:09;;;;;;;5.10;4.70;;;27.90;58.10;;;;;;5039035;28;20459;-66
2023/07/08 11:55:43;;;;;;;4.60;4.10;;;27.90;58.10;;;;;;5027471;28;20818;-67
2023/07/08 11:58:21;;;;;;;5.53;4.67;;;28.00;58.00;;;;;;5043065;28;20465;-65
2023/07/08 12:00:58;;;;;;;5.93;4.50;;;28.00;58.00;;;;;;5050988;28;20506;-65
2023/07/08 12:03:35;;;;;;;4.70;4.30;;;28.00;57.90;;;;;;5049538;28;20464;-68
2023/07/08 12:06:06;;;;;;;5.00;4.50;;;28.10;57.80;;;;;;5039512;28;20482;-65
2023/07/08 12:08:39;;;;;;;5.10;4.70;;;28.10;57.80;;;;;;5045814;28;20874;-71
2023/07/08 12:11:13;;;;;;;5.13;3.93;;;28.20;57.70;;;;;;5046221;28;21107;-64
2023/07/08 12:13:41;;;;;;;5.10;4.37;;;28.30;57.50;;;;;;5047497;28;20942;-65
2023/07/08 12:16:11;;;;;;;4.87;4.37;;;28.40;57.20;;;;;;5031503;28;20451;-65
2023/07/08 12:18:45;;;;;;;3.90;3.50;;;28.50;57.00;;;;;;5041648;28;20489;-65
2023/07/08 12:21:15;;;;;;;3.70;3.40;;;28.60;56.90;;;;;;5047729;28;20485;-66
2023/07/08 12:23:47;;;;;;;6.20;3.97;;;28.80;56.40;;;;;;5045455;28;20525;-62
2023/07/08 12:26:16;;;;;;;5.47;4.90;;;29.00;55.90;;;;;;5051607;28;20462;-62
2023/07/08 12:28:45;;;;;;;4.57;4.17;;;29.20;55.70;;;;;;5049739;28;20457;-64
2023/07/08 12:31:17;;;;;;;5.20;3.60;;;29.40;55.20;;;;;;5038533;28;20536;-62
2023/07/08 12:33:47;;;;;;;3.77;3.37;;;29.50;55.00;;;;;;5041926;28;20553;-63
2023/07/08 12:36:21;;;;;;;4.70;4.07;;;29.50;54.90;;;;;;5038842;28;20580;-63
2023/07/08 12:38:51;;;;;;;4.37;4.00;;;29.60;54.70;;;;;;5036925;28;20553;-66
2023/07/08 12:41:22;;;;;;;4.20;3.80;;;29.60;54.80;;;;;;5047548;28;20474;-67
2023/07/08 12:43:51;;;;;;;5.00;4.10;;;29.50;54.80;;;;;;5048752;28;20838;-62
2023/07/08 12:46:22;;;;;;;3.73;3.33;;;29.50;54.80;;;;;;5044003;28;20460;-65
2023/07/08 12:48:50;;;;;;;3.80;3.47;;;29.50;54.90;;;;;;5044732;28;20971;-62
2023/07/08 12:51:21;;;;;;;4.90;3.70;;;29.50;55.00;;;;;;5036960;28;20531;-62
2023/07/08 12:53:51;;;;;;;3.70;3.40;;;29.40;55.00;;;;;;5028229;28;20870;-63
2023/07/08 12:56:22;;;;;;;4.20;3.80;;;29.40;55.00;;;;;;5047235;28;20450;-64
2023/07/08 12:58:53;;;;;;;5.20;3.73;;;29.40;55.00;;;;;;5046731;28;20458;-63
2023/07/08 13:01:23;;;;;;;4.93;4.50;;;29.40;55.10;;;;;;5051610;28;20473;-66
2023/07/08 13:03:56;;;;;;;3.60;3.30;;;29.40;55.10;;;;;;5039044;28;20449;-63